Time;durP1;ratioP1;P1;durP2;ratioP2;P2;SDS_P1;SDS_P2;PMS_P1;PMS_P2;Temp;Humidity;BMP_temperature;BMP_pressure;BME280_temperature;BME280_humidity;BME280_pressure;Samples;Min_cycle;Max_cycle;Signal;HPM_P1;HPM_P2
2023/09/15 00:02:09;;;;;;;13.43;7.97;;;;;;;13.04;100.00;101929.09;5194465;28;20411;-78
2023/09/15 00:04:39;;;;;;;14.27;7.63;;;;;;;13.03;100.00;101927.41;5185669;28;20026;-79
2023/09/15 00:07:09;;;;;;;16.85;8.77;;;;;;;13.00;100.00;101927.72;5189587;28;20025;-78
2023/09/15 00:09:41;;;;;;;13.02;8.00;;;;;;;12.96;100.00;101917.28;5191317;28;20026;-78
2023/09/15 00:12:11;;;;;;;16.73;8.93;;;;;;;12.96;100.00;101925.34;5193788;28;20472;-79
2023/09/15 00:14:42;;;;;;;17.13;9.05;;;;;;;12.96;100.00;101922.66;5192860;28;20034;-78
2023/09/15 00:17:12;;;;;;;16.63;9.43;;;;;;;12.97;100.00;101923.50;5191448;28;20025;-78
2023/09/15 00:19:43;;;;;;;19.60;9.65;;;;;;;12.93;100.00;101917.56;5190917;28;20079;-79
2023/09/15 00:22:13;;;;;;;18.83;10.00;;;;;;;12.89;100.00;101923.44;5192496;28;20607;-79
2023/09/15 00:24:44;;;;;;;15.65;8.88;;;;;;;12.88;100.00;101913.66;5195742;28;20037;-79
2023/09/15 00:27:14;;;;;;;14.85;9.35;;;;;;;12.87;100.00;101915.50;5197775;28;20029;-78
2023/09/15 00:29:44;;;;;;;16.50;8.52;;;;;;;12.82;100.00;101909.75;5193900;28;20033;-79
2023/09/15 00:32:15;;;;;;;17.05;10.32;;;;;;;12.80;100.00;101909.06;5191124;28;20468;-79
2023/09/15 00:34:45;;;;;;;17.85;9.32;;;;;;;12.79;100.00;101906.50;5189894;28;20057;-79
2023/09/15 00:37:16;;;;;;;16.15;9.23;;;;;;;12.75;100.00;101911.38;5191749;28;20025;-79
2023/09/15 00:39:46;;;;;;;20.02;9.88;;;;;;;12.73;100.00;101909.81;5196109;28;20029;-78
2023/09/15 00:42:19;;;;;;;16.27;9.88;;;;;;;12.70;100.00;101905.56;5188043;28;20026;-79
2023/09/15 00:44:51;;;;;;;21.25;9.73;;;;;;;12.66;100.00;101901.53;5191498;28;20094;-79
2023/09/15 00:47:21;;;;;;;18.13;10.07;;;;;;;12.62;100.00;101902.84;5188967;28;20105;-80
2023/09/15 00:49:52;;;;;;;16.38;9.35;;;;;;;12.61;100.00;101909.22;5192153;28;20082;-78
2023/09/15 00:52:22;;;;;;;13.50;9.07;;;;;;;12.56;100.00;101908.84;5191613;28;20076;-81
2023/09/15 00:54:54;;;;;;;15.85;9.60;;;;;;;12.53;100.00;101904.59;5190662;28;20045;-78
2023/09/15 00:57:25;;;;;;;16.92;10.25;;;;;;;12.53;100.00;101898.38;5192849;28;20032;-78
2023/09/15 00:59:56;;;;;;;22.73;11.02;;;;;;;12.51;100.00;101900.38;5187945;28;20052;-81
2023/09/15 01:02:27;;;;;;;14.75;9.45;;;;;;;12.49;100.00;101896.97;5191759;28;20033;-80
2023/09/15 01:04:58;;;;;;;16.58;9.13;;;;;;;12.43;100.00;101895.75;5192418;28;20025;-80
2023/09/15 01:07:29;;;;;;;13.95;8.85;;;;;;;12.40;100.00;101896.91;5195769;28;20097;-79
2023/09/15 01:10:00;;;;;;;13.80;9.43;;;;;;;12.40;100.00;101896.06;5185832;28;20025;-79
2023/09/15 01:12:32;;;;;;;19.65;10.32;;;;;;;12.38;100.00;101896.19;5190949;28;20026;-79
2023/09/15 01:15:03;;;;;;;16.98;10.07;;;;;;;12.36;100.00;101889.28;5190143;28;20017;-79
2023/09/15 01:17:52;;;;;;;14.98;9.38;;;;;;;12.33;100.00;101881.50;5198886;28;20498;-79
2023/09/15 01:20:45;;;;;;;23.05;11.82;;;;;;;12.31;100.00;101881.69;5201650;28;20368;-81
2023/09/15 01:23:34;;;;;;;18.38;10.18;;;;;;;12.30;100.00;101877.28;5194110;28;20037;-79
2023/09/15 01:26:36;;;;;;;17.52;10.43;;;;;;;12.32;100.00;101869.91;5192742;28;20377;-79
2023/09/15 01:29:38;;;;;;;17.05;9.38;;;;;;;12.26;100.00;101880.44;5202809;28;20088;-79
2023/09/15 01:32:10;;;;;;;15.57;9.52;;;;;;;12.21;100.00;101877.38;5199186;28;20048;-80
2023/09/15 01:34:47;;;;;;;13.35;8.82;;;;;;;12.15;100.00;101876.97;5194997;28;20041;-80
2023/09/15 01:37:18;;;;;;;12.45;7.38;;;;;;;12.13;100.00;101880.78;5195446;28;20040;-79
2023/09/15 01:39:50;;;;;;;8.65;6.07;;;;;;;12.09;100.00;101874.88;5194339;28;20500;-80
2023/09/15 01:42:20;;;;;;;8.90;5.55;;;;;;;12.06;100.00;101874.34;5192817;28;20026;-79
2023/09/15 01:44:50;;;;;;;20.10;7.28;;;;;;;12.02;100.00;101873.78;5194808;28;20029;-81
2023/09/15 01:47:23;;;;;;;64.28;8.13;;;;;;;11.99;100.00;101875.91;5188938;28;20018;-79
2023/09/15 01:49:54;;;;;;;17.60;10.35;;;;;;;11.92;100.00;101876.53;5193886;28;20029;-79
2023/09/15 01:52:25;;;;;;;15.43;9.35;;;;;;;11.88;100.00;101875.13;5192593;28;20036;-79
2023/09/15 01:54:56;;;;;;;16.77;9.52;;;;;;;11.88;100.00;101875.13;5193452;28;20030;-79
2023/09/15 01:57:27;;;;;;;15.70;7.22;;;;;;;11.87;100.00;101875.28;5193515;28;20042;-78
2023/09/15 02:00:01;;;;;;;10.50;6.75;;;;;;;11.83;100.00;101873.88;5189203;28;20033;-79
2023/09/15 02:02:44;;;;;;;10.25;7.03;;;;;;;11.85;100.00;101870.06;5193031;28;20067;-80
2023/09/15 02:05:24;;;;;;;10.38;6.93;;;;;;;11.84;100.00;101864.81;5191263;28;20036;-79
2023/09/15 02:07:54;;;;;;;11.15;6.70;;;;;;;11.80;100.00;101864.25;5192080;28;20041;-79
2023/09/15 02:10:25;;;;;;;6.47;4.93;;;;;;;11.75;100.00;101863.88;5191128;28;20389;-80
2023/09/15 02:13:00;;;;;;;16.50;9.43;;;;;;;11.73;100.00;101857.78;5193220;28;20468;-81
2023/09/15 02:15:37;;;;;;;14.38;9.45;;;;;;;11.71;100.00;101850.88;5192078;28;20387;-79
2023/09/15 02:18:08;;;;;;;15.73;8.60;;;;;;;11.71;100.00;101862.47;5194587;28;20029;-80
2023/09/15 02:20:40;;;;;;;22.42;12.23;;;;;;;11.72;100.00;101864.16;5196244;28;20048;-80
2023/09/15 02:23:11;;;;;;;17.67;10.32;;;;;;;11.71;100.00;101867.84;5187534;28;20082;-80
2023/09/15 02:25:44;;;;;;;20.60;11.48;;;;;;;11.71;100.00;101875.91;5197074;28;20040;-79
2023/09/15 02:28:24;;;;;;;22.63;12.07;;;;;;;11.70;100.00;101857.22;5188821;28;20037;-80
2023/09/15 02:30:55;;;;;;;24.60;13.32;;;;;;;11.72;100.00;101860.63;5193693;28;20041;-83
2023/09/15 02:33:26;;;;;;;31.25;15.13;;;;;;;11.74;100.00;101854.09;5196751;28;20029;-80
2023/09/15 02:35:57;;;;;;;22.15;11.40;;;;;;;11.76;100.00;101860.19;5196113;28;20041;-80
2023/09/15 02:38:28;;;;;;;22.08;12.30;;;;;;;11.75;100.00;101853.13;5192990;28;20087;-80
2023/09/15 02:40:58;;;;;;;26.38;13.32;;;;;;;11.77;100.00;101848.41;5191273;28;20399;-80
2023/09/15 02:43:29;;;;;;;25.42;10.95;;;;;;;11.78;100.00;101852.78;5189672;28;20030;-80
2023/09/15 02:46:05;;;;;;;29.42;15.18;;;;;;;11.80;100.00;101852.66;5191264;28;20021;-80
2023/09/15 02:48:36;;;;;;;28.98;14.23;;;;;;;11.81;100.00;101854.34;5194256;28;20192;-81
2023/09/15 02:51:06;;;;;;;27.42;14.60;;;;;;;11.79;100.00;101848.25;5194621;28;20017;-80
2023/09/15 02:53:37;;;;;;;28.75;14.60;;;;;;;11.77;100.00;101842.19;5194775;28;20025;-80
2023/09/15 02:56:08;;;;;;;30.27;14.63;;;;;;;11.74;100.00;101837.13;5191086;28;20021;-80
2023/09/15 02:58:38;;;;;;;26.75;14.63;;;;;;;11.73;100.00;101840.81;5189567;28;20029;-80
2023/09/15 03:01:11;;;;;;;26.40;14.43;;;;;;;11.76;100.00;101837.81;5194674;28;20033;-80
2023/09/15 03:03:42;;;;;;;34.65;16.33;;;;;;;11.75;100.00;101833.44;5191312;28;20076;-82
2023/09/15 03:06:12;;;;;;;36.38;17.17;;;;;;;11.74;100.00;101832.56;5194915;28;20487;-80
2023/09/15 03:08:43;;;;;;;29.80;15.30;;;;;;;11.72;100.00;101831.91;5191664;28;20080;-80
2023/09/15 03:11:17;;;;;;;33.80;16.80;;;;;;;11.68;100.00;101839.41;5190771;28;20522;-80
2023/09/15 03:13:47;;;;;;;24.02;13.07;;;;;;;11.63;100.00;101835.47;5194445;28;20511;-80
2023/09/15 03:16:18;;;;;;;23.25;13.75;;;;;;;11.59;100.00;101839.44;5191640;28;20021;-80
2023/09/15 03:18:49;;;;;;;22.67;12.45;;;;;;;11.54;100.00;101837.22;5198228;28;20090;-80
2023/09/15 03:21:19;;;;;;;21.80;11.20;;;;;;;11.48;100.00;101835.13;5188118;28;20030;-83
2023/09/15 03:23:50;;;;;;;28.67;14.80;;;;;;;11.47;100.00;101829.91;5192798;28;20040;-80
2023/09/15 03:26:21;;;;;;;24.58;13.68;;;;;;;11.50;100.00;101837.69;5190445;28;20025;-79
2023/09/15 03:28:51;;;;;;;31.58;16.17;;;;;;;11.54;100.00;101830.97;5193153;28;20041;-80
2023/09/15 03:31:21;;;;;;;35.17;17.30;;;;;;;11.53;100.00;101832.00;5190691;28;20028;-80
2023/09/15 03:33:52;;;;;;;33.25;16.15;;;;;;;11.50;100.00;101825.09;5190338;28;20464;-80
2023/09/15 03:36:23;;;;;;;26.27;15.07;;;;;;;11.49;100.00;101823.38;5195381;28;20041;-80
2023/09/15 03:38:53;;;;;;;30.35;16.02;;;;;;;11.44;100.00;101822.97;5191925;28;20029;-80
2023/09/15 03:41:25;;;;;;;31.30;14.70;;;;;;;11.40;100.00;101829.66;5192552;28;20022;-80
2023/09/15 03:43:56;;;;;;;39.28;17.85;;;;;;;11.39;100.00;101819.88;5192833;28;20084;-80
2023/09/15 03:46:27;;;;;;;32.88;16.20;;;;;;;11.36;100.00;101820.19;5189555;28;20476;-79
2023/09/15 03:48:57;;;;;;;34.17;16.90;;;;;;;11.35;100.00;101821.19;5191046;28;20128;-81
2023/09/15 03:51:29;;;;;;;45.97;19.77;;;;;;;11.34;100.00;101822.16;5192516;28;20018;-79
2023/09/15 03:53:59;;;;;;;41.63;20.17;;;;;;;11.33;100.00;101825.84;5193376;28;20033;-81
2023/09/15 03:56:31;;;;;;;109.30;11.63;;;;;;;11.28;100.00;101822.75;5175593;28;20077;-80
2023/09/15 03:59:03;;;;;;;22.35;11.93;;;;;;;11.17;100.00;101815.72;5196437;28;20033;-83
2023/09/15 04:01:33;;;;;;;16.48;9.05;;;;;;;11.09;100.00;101813.78;5194508;28;20045;-82
2023/09/15 04:04:04;;;;;;;22.77;12.32;;;;;;;11.03;100.00;101811.66;5193584;28;20025;-80
2023/09/15 04:06:35;;;;;;;28.48;14.40;;;;;;;11.03;100.00;101802.78;5191672;28;20443;-80
2023/09/15 04:09:13;;;;;;;37.50;17.40;;;;;;;11.01;100.00;101808.28;5190718;28;20022;-85
2023/09/15 04:11:44;;;;;;;34.03;17.70;;;;;;;11.02;100.00;101804.59;5191703;28;20030;-82
2023/09/15 04:14:14;;;;;;;37.95;18.40;;;;;;;11.05;100.00;101803.47;5192789;28;20030;-80
2023/09/15 04:16:45;;;;;;;39.63;18.63;;;;;;;11.01;100.00;101802.91;5193060;28;20044;-81
2023/09/15 04:19:15;;;;;;;36.28;18.85;;;;;;;11.02;100.00;101803.75;5192923;28;20021;-80
2023/09/15 04:21:46;;;;;;;37.28;18.90;;;;;;;11.03;100.00;101810.81;5193081;28;20056;-82
2023/09/15 04:24:16;;;;;;;35.28;16.75;;;;;;;11.02;100.00;101812.66;5196916;28;20022;-82
2023/09/15 04:26:47;;;;;;;36.53;18.02;;;;;;;11.02;100.00;101806.44;5191350;28;20037;-79
2023/09/15 04:29:17;;;;;;;41.83;19.58;;;;;;;11.01;100.00;101813.66;5193698;28;20029;-79
2023/09/15 04:31:48;;;;;;;37.90;16.38;;;;;;;10.99;100.00;101810.25;5195850;28;20160;-81
2023/09/15 04:34:18;;;;;;;39.83;18.25;;;;;;;11.00;100.00;101811.13;5188828;28;20021;-81
2023/09/15 04:36:49;;;;;;;35.17;18.02;;;;;;;11.01;100.00;101812.81;5199862;28;20029;-81
2023/09/15 04:39:19;;;;;;;38.83;18.13;;;;;;;11.01;100.00;101813.66;5195321;28;20049;-81
2023/09/15 04:41:50;;;;;;;40.28;18.80;;;;;;;11.00;100.00;101821.88;5193437;28;20555;-80
2023/09/15 04:44:21;;;;;;;33.78;17.23;;;;;;;10.97;100.00;101823.00;5195154;28;20495;-82
2023/09/15 04:46:51;;;;;;;37.40;17.38;;;;;;;10.96;100.00;101815.94;5195522;28;20104;-80
2023/09/15 04:49:22;;;;;;;33.33;16.70;;;;;;;10.93;100.00;101818.06;5192078;28;20065;-80
2023/09/15 04:51:53;;;;;;;31.75;16.73;;;;;;;10.87;100.00;101822.16;5200805;28;20036;-83
2023/09/15 04:54:25;;;;;;;25.95;14.05;;;;;;;10.81;100.00;101828.97;5195083;28;20029;-80
2023/09/15 04:56:56;;;;;;;31.88;15.85;;;;;;;10.78;100.00;101826.56;5194836;28;20048;-83
2023/09/15 04:59:27;;;;;;;28.30;15.55;;;;;;;10.78;100.00;101823.03;5194679;28;20108;-80
2023/09/15 05:01:57;;;;;;;31.02;15.80;;;;;;;10.75;100.00;101829.56;5198005;28;20038;-80
2023/09/15 05:04:28;;;;;;;23.48;13.27;;;;;;;10.72;100.00;101824.44;5195140;28;20112;-81
2023/09/15 05:06:58;;;;;;;24.75;12.00;;;;;;;10.67;100.00;101824.03;5198904;28;20406;-81
2023/09/15 05:09:29;;;;;;;27.70;14.15;;;;;;;10.64;100.00;101824.31;5192716;28;20061;-82
2023/09/15 05:12:00;;;;;;;27.05;15.23;;;;;;;10.64;100.00;101821.63;5198207;28;20010;-80
2023/09/15 05:14:30;;;;;;;27.92;13.88;;;;;;;10.61;100.00;101822.78;5198457;28;20506;-80
2023/09/15 05:17:01;;;;;;;26.17;13.95;;;;;;;10.61;100.00;101817.41;5192748;28;20491;-81
2023/09/15 05:19:31;;;;;;;31.80;15.15;;;;;;;10.58;100.00;101820.38;5195895;28;20025;-80
2023/09/15 05:22:02;;;;;;;28.27;13.85;;;;;;;10.58;100.00;101823.03;5192872;28;20086;-78
2023/09/15 05:24:32;;;;;;;13.43;8.90;;;;;;;10.57;100.00;101826.72;5193140;28;20523;-78
2023/09/15 05:27:03;;;;;;;28.73;14.05;;;;;;;10.56;100.00;101822.34;5197258;28;20111;-80
2023/09/15 05:29:34;;;;;;;21.73;11.43;;;;;;;10.57;100.00;101823.19;5190110;28;20041;-79
2023/09/15 05:32:05;;;;;;;31.92;16.83;;;;;;;10.59;100.00;101826.56;5194117;28;20547;-78
2023/09/15 05:34:35;;;;;;;33.95;14.13;;;;;;;10.63;100.00;101818.09;5191429;28;20438;-79
2023/09/15 05:37:06;;;;;;;21.48;12.70;;;;;;;10.65;100.00;101822.50;5196689;28;20080;-79
2023/09/15 05:39:36;;;;;;;17.00;10.20;;;;;;;10.66;100.00;101833.09;5192527;28;20507;-79
2023/09/15 05:42:06;;;;;;;21.58;11.80;;;;;;;10.69;100.00;101837.31;5197037;28;20048;-80
2023/09/15 05:44:37;;;;;;;12.90;6.45;;;;;;;10.70;100.00;101830.97;5179934;28;20121;-79
2023/09/15 05:47:07;;;;;;;13.00;7.20;;;;;;;10.70;100.00;101833.66;5196498;28;20028;-80
2023/09/15 05:49:38;;;;;;;7.53;5.80;;;;;;;10.67;100.00;101836.63;5194902;28;20079;-77
2023/09/15 05:52:08;;;;;;;13.52;8.48;;;;;;;10.67;100.00;101837.47;5194542;28;20060;-80
2023/09/15 05:54:39;;;;;;;17.35;10.15;;;;;;;10.69;100.00;101831.94;5195528;28;20029;-79
2023/09/15 05:57:10;;;;;;;16.15;10.32;;;;;;;10.73;100.00;101836.88;5200135;28;20037;-79
2023/09/15 05:59:40;;;;;;;14.82;9.95;;;;;;;10.75;100.00;101839.44;5191703;28;20112;-80
2023/09/15 06:02:11;;;;;;;28.30;13.57;;;;;;;10.80;100.00;101843.38;5196297;28;20123;-80
2023/09/15 06:04:43;;;;;;;45.97;21.27;;;;;;;10.93;100.00;101840.38;5195243;28;20133;-80
2023/09/15 06:07:13;;;;;;;42.83;20.80;;;;;;;11.24;100.00;101834.78;5198478;28;20538;-79
2023/09/15 06:09:44;;;;;;;35.60;19.08;;;;;;;11.79;100.00;101827.59;5194328;28;20100;-79
2023/09/15 06:12:14;;;;;;;31.83;16.40;;;;;;;12.45;100.00;101829.19;5193105;28;20075;-78
2023/09/15 06:14:45;;;;;;;30.92;16.02;;;;;;;13.02;100.00;101821.53;5196043;28;20029;-79
2023/09/15 06:17:15;;;;;;;31.42;16.15;;;;;;;13.29;100.00;101830.47;5194294;28;20557;-79
2023/09/15 06:19:46;;;;;;;33.88;16.35;;;;;;;13.40;100.00;101824.78;5191814;28;20021;-80
2023/09/15 06:22:16;;;;;;;23.73;12.55;;;;;;;13.47;100.00;101823.16;5193343;28;20032;-81
2023/09/15 06:24:47;;;;;;;30.42;15.45;;;;;;;13.62;100.00;101821.53;5178333;28;20026;-81
2023/09/15 06:27:18;;;;;;;32.85;15.73;;;;;;;13.72;100.00;101819.53;5193621;28;20091;-81
2023/09/15 06:29:49;;;;;;;24.73;14.25;;;;;;;13.83;100.00;101823.78;5196143;28;20022;-82
2023/09/15 06:32:20;;;;;;;27.10;14.45;;;;;;;14.07;100.00;101825.72;5196367;28;20075;-81
2023/09/15 06:34:50;;;;;;;22.50;13.30;;;;;;;14.30;100.00;101827.75;5191734;28;20029;-81
2023/09/15 06:37:21;;;;;;;23.02;13.73;;;;;;;14.58;100.00;101826.47;5193598;28;20030;-81
2023/09/15 06:39:51;;;;;;;27.05;13.85;;;;;;;14.82;100.00;101816.69;5196280;28;20033;-81
2023/09/15 06:42:22;;;;;;;24.45;13.85;;;;;;;15.00;100.00;101817.31;5196426;28;20033;-81
2023/09/15 06:44:52;;;;;;;27.30;14.25;;;;;;;15.21;100.00;101811.34;5196162;28;20032;-82
2023/09/15 06:47:23;;;;;;;25.30;13.40;;;;;;;15.53;100.00;101803.13;5191506;28;20025;-81
2023/09/15 06:49:53;;;;;;;26.40;13.60;;;;;;;15.97;100.00;101807.19;5194067;28;20025;-83
2023/09/15 06:52:24;;;;;;;18.45;11.98;;;;;;;16.39;100.00;101811.28;5195845;28;20033;-82
2023/09/15 06:54:54;;;;;;;21.83;12.13;;;;;;;16.73;100.00;101810.88;5192674;28;20024;-81
2023/09/15 06:57:25;;;;;;;21.98;12.57;;;;;;;16.73;100.00;101806.28;5193946;28;20577;-81
2023/09/15 06:59:55;;;;;;;28.13;11.85;;;;;;;16.64;100.00;101799.22;5195601;28;20034;-81
2023/09/15 07:02:26;;;;;;;24.02;12.98;;;;;;;16.65;100.00;101797.34;5191930;28;20025;-81
2023/09/15 07:04:57;;;;;;;19.73;11.70;;;;;;;16.86;100.00;101797.50;5187723;28;20101;-81
2023/09/15 07:07:27;;;;;;;20.65;11.77;;;;;;;16.90;100.00;101800.72;5191046;28;20483;-81
2023/09/15 07:09:58;;;;;;;22.75;11.90;;;;;;;17.20;100.00;101798.88;5190464;28;20109;-81
2023/09/15 07:12:28;;;;;;;22.65;11.25;;;;;;;17.58;100.00;101788.75;5191413;28;20072;-81
2023/09/15 07:18:21;;;;;;;17.15;10.55;;;;;;;18.52;100.00;101794.97;5188952;28;20443;-81
2023/09/15 07:20:51;;;;;;;18.50;10.27;;;;;;;18.85;100.00;101802.63;5195827;28;20040;-82
2023/09/15 07:23:22;;;;;;;18.30;10.45;;;;;;;19.22;100.00;101795.94;5189661;28;20032;-81
2023/09/15 07:25:52;;;;;;;18.27;10.35;;;;;;;19.60;100.00;101804.56;5193479;28;20042;-81
2023/09/15 07:28:23;;;;;;;16.65;10.23;;;;;;;19.80;100.00;101790.19;5194524;28;20033;-81
2023/09/15 07:31:03;;;;;;;21.95;10.32;;;;;;;19.99;100.00;101786.69;5196557;28;20034;-81
2023/09/15 07:33:34;;;;;;;18.05;9.65;;;;;;;20.18;100.00;101787.75;5192045;28;20442;-82
2023/09/15 07:36:04;;;;;;;21.50;9.55;;;;;;;20.29;100.00;101786.31;5195684;28;20033;-81
2023/09/15 07:38:35;;;;;;;17.20;8.70;;;;;;;20.38;100.00;101785.91;5198449;28;20088;-82
2023/09/15 07:41:06;;;;;;;16.55;8.57;;;;;;;20.66;100.00;101785.72;5193132;28;20033;-81
2023/09/15 07:43:36;;;;;;;14.43;8.68;;;;;;;20.82;100.00;101789.91;5190586;28;20037;-83
2023/09/15 07:46:06;;;;;;;16.55;8.90;;;;;;;20.99;100.00;101786.75;5190943;28;20484;-82
2023/09/15 07:48:37;;;;;;;13.43;8.15;;;;;;;21.30;100.00;101788.78;5193881;28;20909;-82
2023/09/15 07:51:08;;;;;;;11.43;7.80;;;;;;;21.42;100.00;101790.66;5190957;28;20017;-82
2023/09/15 07:53:38;;;;;;;13.63;8.10;;;;;;;21.60;100.00;101794.59;5189321;28;20116;-82
2023/09/15 07:56:08;;;;;;;10.63;7.38;;;;;;;21.65;100.00;101778.41;5197634;28;20025;-82
2023/09/15 07:58:40;;;;;;;10.52;7.10;;;;;;;21.90;100.00;101765.66;5193666;28;20475;-82
2023/09/15 08:01:11;;;;;;;13.65;7.78;;;;;;;21.92;100.00;101773.63;5195763;28;20068;-82
2023/09/15 08:03:42;;;;;;;14.70;8.27;;;;;;;21.75;100.00;101777.94;5197405;28;20718;-83
2023/09/15 08:06:13;;;;;;;15.95;8.07;;;;;;;21.78;100.00;101766.56;5200621;28;20049;-82
2023/09/15 08:08:43;;;;;;;13.38;6.70;;;;;;;21.86;100.00;101772.59;5194241;28;20041;-82
2023/09/15 08:11:14;;;;;;;10.95;7.03;;;;;;;22.16;100.00;101774.78;5181366;28;20420;-82
2023/09/15 08:13:44;;;;;;;10.70;6.35;;;;;;;22.40;100.00;101776.69;5199849;28;20108;-82
2023/09/15 08:16:15;;;;;;;9.32;6.53;;;;;;;22.57;100.00;101770.66;5203305;28;20511;-83
2023/09/15 08:18:45;;;;;;;10.23;5.93;;;;;;;22.71;100.00;101764.84;5202026;28;20021;-82
2023/09/15 08:21:16;;;;;;;12.32;6.10;;;;;;;22.87;100.00;101770.81;5193364;28;20053;-82
2023/09/15 08:23:46;;;;;;;10.98;6.72;;;;;;;22.99;100.00;101769.03;5202723;28;20131;-83
2023/09/15 08:26:17;;;;;;;10.82;6.85;;;;;;;23.16;100.00;101770.13;5197989;28;20026;-82
2023/09/15 08:28:47;;;;;;;10.15;6.15;;;;;;;23.41;100.00;101774.69;5198910;28;20057;-83
2023/09/15 08:31:18;;;;;;;11.70;6.07;;;;;;;23.45;100.00;101773.16;5207498;28;20083;-82
2023/09/15 08:33:48;;;;;;;12.40;6.35;;;;;;;23.40;100.00;101760.16;5204531;28;20083;-82
2023/09/15 08:36:19;;;;;;;10.25;6.28;;;;;;;23.30;100.00;101770.81;5206082;28;20049;-82
2023/09/15 08:38:49;;;;;;;14.85;6.15;;;;;;;23.77;100.00;101760.97;5194660;28;20487;-83
2023/09/15 08:41:24;;;;;;;7.88;5.35;;;;;;;23.87;100.00;101759.56;5207506;28;20033;-84
2023/09/15 08:43:55;;;;;;;7.95;5.57;;;;;;;23.94;100.00;101763.88;5201328;28;20037;-82
2023/09/15 08:46:27;;;;;;;10.23;6.10;;;;;;;24.14;100.00;101776.44;5197656;28;20022;-83
2023/09/15 08:48:58;;;;;;;11.40;6.00;;;;;;;24.14;100.00;101770.97;5205903;28;20118;-82
2023/09/15 08:51:31;;;;;;;13.02;6.18;;;;;;;24.50;100.00;101756.31;5202302;28;20059;-83
2023/09/15 08:54:01;;;;;;;9.32;5.70;;;;;;;24.76;100.00;101763.25;5205649;28;20030;-82
2023/09/15 08:56:32;;;;;;;8.25;5.40;;;;;;;24.51;100.00;101760.72;5208597;28;20032;-82
2023/09/15 08:59:04;;;;;;;13.57;6.22;;;;;;;24.40;100.00;101753.28;5201227;28;20044;-82
2023/09/15 09:01:35;;;;;;;8.35;5.95;;;;;;;24.67;100.00;101750.94;5204186;28;20045;-82
2023/09/15 09:04:06;;;;;;;10.65;5.18;;;;;;;24.92;100.00;101756.19;5202815;28;20025;-83
2023/09/15 09:06:38;;;;;;;8.57;5.63;;;;;;;24.98;100.00;101755.22;5200574;28;20057;-82
2023/09/15 09:09:09;;;;;;;8.23;5.13;;;;;;;25.12;100.00;101756.66;5203383;28;20031;-82
2023/09/15 09:11:40;;;;;;;10.75;5.60;;;;;;;25.14;100.00;101761.91;5200529;28;20022;-82
2023/09/15 09:14:12;;;;;;;6.93;4.60;;;;;;;25.31;100.00;101749.94;5207322;28;20533;-82
2023/09/15 09:16:42;;;;;;;9.18;5.00;;;;;;;25.29;100.00;101759.50;5203970;28;20035;-82
2023/09/15 09:19:13;;;;;;;9.40;5.10;;;;;;;25.53;100.00;101760.28;5204381;28;20053;-82
2023/09/15 09:21:44;;;;;;;7.32;4.65;;;;;;;25.62;100.00;101760.72;5200836;28;20018;-82
2023/09/15 09:24:15;;;;;;;7.90;4.40;;;;;;;25.81;100.00;101754.00;5199402;28;20384;-82
2023/09/15 09:26:54;;;;;;;9.60;5.05;;;;;;;25.80;100.00;101752.31;5198658;28;20408;-82
2023/09/15 09:29:28;;;;;;;6.90;4.22;;;;;;;26.00;100.00;101749.09;5201169;28;20506;-83
2023/09/15 09:31:58;;;;;;;8.60;3.97;;;;;;;25.77;100.00;101750.06;5195903;28;20018;-83
2023/09/15 09:34:29;;;;;;;10.27;4.15;;;;;;;25.75;100.00;101752.22;5192917;28;20032;-83
2023/09/15 09:36:59;;;;;;;10.63;4.45;;;;;;;25.81;100.00;101746.59;5202268;28;20408;-83
2023/09/15 09:39:30;;;;;;;6.93;4.15;;;;;;;25.89;100.00;101734.34;5191010;28;20033;-84
2023/09/15 09:42:02;;;;;;;8.77;4.20;;;;;;;25.92;100.00;101739.34;5206414;28;20451;-82
2023/09/15 09:44:36;;;;;;;9.05;3.83;;;;;;;25.96;100.00;101737.78;5205138;28;20022;-82
2023/09/15 09:47:08;;;;;;;6.73;3.60;;;;;;;26.18;100.00;101732.38;5205997;28;20184;-82
2023/09/15 09:49:40;;;;;;;6.50;3.50;;;;;;;26.38;100.00;101729.13;5197958;28;20104;-82
2023/09/15 09:52:13;;;;;;;10.00;3.58;;;;;;;26.50;100.00;101724.41;5193423;28;20017;-83
2023/09/15 09:54:48;;;;;;;7.18;4.30;;;;;;;26.41;100.00;101720.41;5198772;28;20040;-83
2023/09/15 09:57:19;;;;;;;;;;;;;;;26.62;100.00;101723.50;5198592;28;20026;-83
2023/09/15 09:59:49;;;;;;;7.53;3.92;;;;;;;26.47;100.00;101721.34;5188117;28;19964;-83
2023/09/15 10:02:20;;;;;;;4.57;2.67;;;;;;;26.42;100.00;101715.72;5196460;28;20025;-82
2023/09/15 10:04:51;;;;;;;6.43;3.40;;;;;;;26.52;100.00;101714.00;5192386;28;20079;-82
2023/09/15 10:07:22;;;;;;;10.00;3.55;;;;;;;26.57;100.00;101713.25;5198055;28;20029;-84
2023/09/15 10:09:54;;;;;;;8.63;3.45;;;;;;;26.60;100.00;101708.03;5195879;28;20499;-82
2023/09/15 10:12:25;;;;;;;5.75;3.28;;;;;;;26.56;100.00;101706.91;5197179;28;20022;-82
2023/09/15 10:14:57;;;;;;;8.90;3.38;;;;;;;26.38;100.00;101711.81;5195272;28;20026;-84
2023/09/15 10:17:28;;;;;;;8.60;4.03;;;;;;;26.39;100.00;101703.28;5199365;28;20025;-83
2023/09/15 10:19:59;;;;;;;10.27;3.17;;;;;;;26.35;100.00;101699.38;5192728;28;20037;-82
2023/09/15 10:22:31;;;;;;;8.25;3.65;;;;;;;26.11;100.00;101695.97;5199586;28;20057;-83
2023/09/15 10:25:03;;;;;;;8.30;4.18;;;;;;;25.66;100.00;101690.47;5201100;28;20121;-83
2023/09/15 10:27:34;;;;;;;7.18;4.18;;;;;;;25.40;100.00;101687.22;5195274;28;20036;-85
2023/09/15 10:30:06;;;;;;;9.70;4.55;;;;;;;25.19;100.00;101683.22;5198152;28;20395;-83
2023/09/15 10:32:39;;;;;;;11.43;4.00;;;;;;;25.11;100.00;101685.53;5197699;28;20014;-82
2023/09/15 10:35:11;;;;;;;7.72;4.72;;;;;;;25.02;100.00;101680.38;5195134;28;20572;-82
2023/09/15 10:37:42;;;;;;;9.77;4.60;;;;;;;24.94;100.00;101678.00;5191393;28;20152;-82
2023/09/15 10:40:13;;;;;;;8.45;4.00;;;;;;;24.99;100.00;101680.03;5201932;28;20021;-82
2023/09/15 10:42:48;;;;;;;8.40;4.72;;;;;;;25.33;100.00;101677.47;5190730;28;20072;-82
2023/09/15 10:45:19;;;;;;;;;;;;;;;25.65;100.00;101673.13;5192950;28;20033;-83
2023/09/15 10:47:56;;;;;;;10.45;4.10;;;;;;;25.92;100.00;101673.38;5191128;28;19921;-82
2023/09/15 10:50:30;;;;;;;7.90;4.03;;;;;;;26.18;100.00;101668.31;5191687;28;20428;-83
2023/09/15 10:53:08;;;;;;;11.38;4.25;;;;;;;26.17;100.00;101664.72;5192179;28;20030;-82
2023/09/15 10:55:40;;;;;;;9.35;4.13;;;;;;;26.19;100.00;101661.72;5185544;28;20026;-83
2023/09/15 10:58:14;;;;;;;8.27;4.53;;;;;;;26.26;100.00;101663.22;5199261;28;20508;-82
2023/09/15 11:00:47;;;;;;;9.52;3.40;;;;;;;26.44;100.00;101661.31;5190209;28;20403;-83
2023/09/15 11:03:19;;;;;;;4.43;2.90;;;;;;;26.51;100.00;101664.72;5189646;28;20097;-81
2023/09/15 11:05:52;;;;;;;6.88;3.15;;;;;;;26.47;100.00;101664.38;5195579;28;20111;-81
2023/09/15 11:08:23;;;;;;;7.95;2.80;;;;;;;26.47;100.00;101661.63;5195266;28;20025;-84
2023/09/15 11:10:59;;;;;;;6.13;2.97;;;;;;;26.51;100.00;101661.97;5193617;28;20104;-83
2023/09/15 11:13:30;;;;;;;5.43;2.70;;;;;;;26.37;100.00;101663.38;5195819;28;20527;-85
2023/09/15 11:16:01;;;;;;;4.60;2.72;;;;;;;26.09;100.00;101668.72;5197959;28;20033;-82
2023/09/15 11:18:34;;;;;;;7.35;2.47;;;;;;;25.86;100.00;101651.56;5198201;28;20391;-83
2023/09/15 11:21:06;;;;;;;5.95;2.72;;;;;;;25.93;100.00;101658.53;5201917;28;20022;-83
2023/09/15 11:23:36;;;;;;;4.60;2.20;;;;;;;26.02;100.00;101648.81;5196469;28;20212;-83
2023/09/15 11:26:09;;;;;;;3.45;2.22;;;;;;;26.05;100.00;101650.22;5177473;28;20108;-84
2023/09/15 11:28:39;;;;;;;5.80;2.03;;;;;;;26.10;100.00;101644.78;5188629;28;20033;-84
2023/09/15 11:31:10;;;;;;;4.22;2.03;;;;;;;26.07;100.00;101648.88;5191007;28;20029;-83